sensor_id;sensor_type;location;lat;lon;timestamp;pressure;altitude;pressure_sealevel;temperature;humidity
42519;BME280;28147;47.520;18.920;2023-06-26T00:01:14;98362.53;;;22.80;52.01
42519;BME280;28147;47.520;18.920;2023-06-26T00:03:40;98357.09;;;22.80;52.05
42519;BME280;28147;47.520;18.920;2023-06-26T00:06:05;98357.03;;;23.02;51.19
42519;BME280;28147;47.520;18.920;2023-06-26T00:08:31;98360.94;;;23.19;50.14
42519;BME280;28147;47.520;18.920;2023-06-26T00:10:56;98368.31;;;23.53;48.10
42519;BME280;28147;47.520;18.920;2023-06-26T00:13:23;98365.72;;;23.39;48.99
42519;BME280;28147;47.520;18.920;2023-06-26T00:15:48;98371.47;;;23.20;50.47
42519;BME280;28147;47.520;18.920;2023-06-26T00:18:14;98361.03;;;22.96;51.05
42519;BME280;28147;47.520;18.920;2023-06-26T00:20:39;98360.88;;;23.01;50.79
42519;BME280;28147;47.520;18.920;2023-06-26T00:23:05;98355.72;;;22.43;52.30
42519;BME280;28147;47.520;18.920;2023-06-26T00:25:33;98359.69;;;22.45;52.71
42519;BME280;28147;47.520;18.920;2023-06-26T00:27:59;98362.25;;;22.81;51.91
42519;BME280;28147;47.520;18.920;2023-06-26T00:30:25;98367.47;;;22.69;51.09
42519;BME280;28147;47.520;18.920;2023-06-26T00:32:50;98365.97;;;22.94;50.88
42519;BME280;28147;47.520;18.920;2023-06-26T00:35:16;98369.69;;;22.67;51.85
42519;BME280;28147;47.520;18.920;2023-06-26T00:37:41;98367.75;;;22.28;53.13
42519;BME280;28147;47.520;18.920;2023-06-26T00:40:07;98370.84;;;22.75;51.90
42519;BME280;28147;47.520;18.920;2023-06-26T00:42:33;98370.84;;;22.75;51.89
42519;BME280;28147;47.520;18.920;2023-06-26T00:44:58;98350.16;;;22.56;52.09
42519;BME280;28147;47.520;18.920;2023-06-26T00:47:24;98372.25;;;22.72;51.60
42519;BME280;28147;47.520;18.920;2023-06-26T00:49:50;98364.25;;;22.67;52.02
42519;BME280;28147;47.520;18.920;2023-06-26T00:52:16;98362.09;;;22.87;50.92
42519;BME280;28147;47.520;18.920;2023-06-26T00:54:42;98357.59;;;22.82;51.00
42519;BME280;28147;47.520;18.920;2023-06-26T00:57:07;98356.81;;;22.90;51.15
42519;BME280;28147;47.520;18.920;2023-06-26T00:59:34;98349.41;;;22.65;51.76
42519;BME280;28147;47.520;18.920;2023-06-26T01:01:59;98351.94;;;23.01;51.07
42519;BME280;28147;47.520;18.920;2023-06-26T01:04:25;98354.69;;;22.70;51.42
42519;BME280;28147;47.520;18.920;2023-06-26T01:06:53;98353.47;;;22.85;50.79
42519;BME280;28147;47.520;18.920;2023-06-26T01:09:20;98351.94;;;23.01;50.69
42519;BME280;28147;47.520;18.920;2023-06-26T01:11:46;98342.50;;;22.98;50.57
42519;BME280;28147;47.520;18.920;2023-06-26T01:14:12;98337.63;;;22.78;51.07
42519;BME280;28147;47.520;18.920;2023-06-26T01:16:39;98340.97;;;22.75;50.98
42519;BME280;28147;47.520;18.920;2023-06-26T01:19:24;98332.53;;;22.37;51.76
42519;BME280;28147;47.520;18.920;2023-06-26T01:22:25;98346.47;;;22.52;51.50
42519;BME280;28147;47.520;18.920;2023-06-26T01:25:12;98342.81;;;22.57;51.32
42519;BME280;28147;47.520;18.920;2023-06-26T01:27:44;98333.47;;;22.32;52.18
42519;BME280;28147;47.520;18.920;2023-06-26T01:30:11;98328.22;;;22.36;51.63
42519;BME280;28147;47.520;18.920;2023-06-26T01:32:37;98328.69;;;22.38;51.67
42519;BME280;28147;47.520;18.920;2023-06-26T01:35:06;98332.44;;;22.50;51.75
42519;BME280;28147;47.520;18.920;2023-06-26T01:37:32;98330.09;;;22.26;52.35
42519;BME280;28147;47.520;18.920;2023-06-26T01:39:57;98329.56;;;22.47;52.21
42519;BME280;28147;47.520;18.920;2023-06-26T01:42:23;98337.88;;;22.50;52.05
42519;BME280;28147;47.520;18.920;2023-06-26T01:44:48;98330.19;;;22.52;51.86
42519;BME280;28147;47.520;18.920;2023-06-26T01:47:16;98338.59;;;22.42;52.66
42519;BME280;28147;47.520;18.920;2023-06-26T01:50:11;98334.13;;;22.38;51.99
42519;BME280;28147;47.520;18.920;2023-06-26T01:55:23;98331.75;;;22.36;52.50
42519;BME280;28147;47.520;18.920;2023-06-26T01:57:52;98331.81;;;22.22;52.04
42519;BME280;28147;47.520;18.920;2023-06-26T02:00:19;98330.75;;;22.32;52.37
42519;BME280;28147;47.520;18.920;2023-06-26T02:02:46;98331.22;;;22.34;51.83
42519;BME280;28147;47.520;18.920;2023-06-26T02:05:12;98323.25;;;22.29;52.49
42519;BME280;28147;47.520;18.920;2023-06-26T02:07:37;98326.44;;;22.31;52.70
42519;BME280;28147;47.520;18.920;2023-06-26T02:10:03;98322.72;;;22.18;52.70
42519;BME280;28147;47.520;18.920;2023-06-26T02:12:28;98322.91;;;22.30;52.99
42519;BME280;28147;47.520;18.920;2023-06-26T02:14:54;98322.03;;;22.44;52.23
42519;BME280;28147;47.520;18.920;2023-06-26T02:17:19;98320.91;;;22.45;52.23
42519;BME280;28147;47.520;18.920;2023-06-26T02:19:45;98321.72;;;22.45;52.45
42519;BME280;28147;47.520;18.920;2023-06-26T02:22:16;98326.00;;;22.46;51.70
42519;BME280;28147;47.520;18.920;2023-06-26T02:24:42;98321.69;;;22.37;52.21
42519;BME280;28147;47.520;18.920;2023-06-26T02:27:08;98325.59;;;22.22;52.70
42519;BME280;28147;47.520;18.920;2023-06-26T02:29:34;98326.09;;;22.24;52.80
42519;BME280;28147;47.520;18.920;2023-06-26T02:32:00;98331.66;;;22.19;52.55
42519;BME280;28147;47.520;18.920;2023-06-26T02:34:25;98339.97;;;22.00;53.34
42519;BME280;28147;47.520;18.920;2023-06-26T02:36:50;98333.59;;;22.27;52.37
42519;BME280;28147;47.520;18.920;2023-06-26T02:39:18;98334.97;;;22.16;53.10
42519;BME280;28147;47.520;18.920;2023-06-26T02:41:44;98341.31;;;22.11;53.49
42519;BME280;28147;47.520;18.920;2023-06-26T02:44:09;98343.09;;;22.16;52.95
42519;BME280;28147;47.520;18.920;2023-06-26T02:46:36;98346.72;;;22.11;52.91
42519;BME280;28147;47.520;18.920;2023-06-26T02:49:02;98341.25;;;22.25;53.28
42519;BME280;28147;47.520;18.920;2023-06-26T02:51:27;98340.53;;;22.42;52.22
42519;BME280;28147;47.520;18.920;2023-06-26T02:53:52;98345.41;;;22.31;52.69
42519;BME280;28147;47.520;18.920;2023-06-26T02:56:18;98340.50;;;22.33;52.36
42519;BME280;28147;47.520;18.920;2023-06-26T02:58:43;98339.28;;;22.48;52.13
42519;BME280;28147;47.520;18.920;2023-06-26T03:01:09;98339.03;;;22.67;51.21
42519;BME280;28147;47.520;18.920;2023-06-26T03:03:34;98335.03;;;22.64;51.60
42519;BME280;28147;47.520;18.920;2023-06-26T03:06:08;98342.66;;;23.02;50.36
42519;BME280;28147;47.520;18.920;2023-06-26T03:08:37;98341.41;;;23.25;49.07
42519;BME280;28147;47.520;18.920;2023-06-26T03:11:04;98343.59;;;22.89;50.95
42519;BME280;28147;47.520;18.920;2023-06-26T03:13:30;98340.34;;;22.78;51.00
42519;BME280;28147;47.520;18.920;2023-06-26T03:15:55;98343.50;;;22.63;51.47
42519;BME280;28147;47.520;18.920;2023-06-26T03:18:21;98346.00;;;22.50;52.12
42519;BME280;28147;47.520;18.920;2023-06-26T03:20:46;98352.59;;;22.58;51.62
42519;BME280;28147;47.520;18.920;2023-06-26T03:23:11;98355.13;;;22.54;52.30
42519;BME280;28147;47.520;18.920;2023-06-26T03:25:37;98357.75;;;22.77;51.52
42519;BME280;28147;47.520;18.920;2023-06-26T03:28:02;98352.69;;;22.53;52.03
42519;BME280;28147;47.520;18.920;2023-06-26T03:30:27;98356.97;;;22.45;52.49
42519;BME280;28147;47.520;18.920;2023-06-26T03:32:53;98359.22;;;22.43;52.42
42519;BME280;28147;47.520;18.920;2023-06-26T03:35:18;98351.34;;;22.73;50.77
42519;BME280;28147;47.520;18.920;2023-06-26T03:37:44;98354.63;;;22.92;50.58
42519;BME280;28147;47.520;18.920;2023-06-26T03:40:09;98355.91;;;22.95;51.18
42519;BME280;28147;47.520;18.920;2023-06-26T03:42:35;98363.63;;;23.19;49.80
42519;BME280;28147;47.520;18.920;2023-06-26T03:45:00;98361.38;;;23.12;49.24
42519;BME280;28147;47.520;18.920;2023-06-26T03:47:25;98360.47;;;23.34;49.33
42519;BME280;28147;47.520;18.920;2023-06-26T03:49:51;98358.41;;;23.57;48.84
42519;BME280;28147;47.520;18.920;2023-06-26T03:52:16;98367.06;;;23.68;49.09
42519;BME280;28147;47.520;18.920;2023-06-26T03:54:42;98360.63;;;23.55;49.45
42519;BME280;28147;47.520;18.920;2023-06-26T03:57:07;98361.78;;;23.80;48.64
42519;BME280;28147;47.520;18.920;2023-06-26T03:59:32;98363.03;;;23.74;49.09
42519;BME280;28147;47.520;18.920;2023-06-26T04:01:58;98374.53;;;23.62;49.90
42519;BME280;28147;47.520;18.920;2023-06-26T04:04:23;98373.69;;;23.18;50.76
42519;BME280;28147;47.520;18.920;2023-06-26T04:06:49;98371.97;;;23.48;49.65
42519;BME280;28147;47.520;18.920;2023-06-26T04:09:14;98371.53;;;23.72;49.15
42519;BME280;28147;47.520;18.920;2023-06-26T04:11:40;98370.91;;;23.75;49.74
42519;BME280;28147;47.520;18.920;2023-06-26T04:14:05;98367.53;;;23.70;49.98
42519;BME280;28147;47.520;18.920;2023-06-26T04:16:30;98377.94;;;23.76;50.48
42519;BME280;28147;47.520;18.920;2023-06-26T04:18:56;98368.44;;;24.09;49.88
42519;BME280;28147;47.520;18.920;2023-06-26T04:21:21;98371.50;;;24.07;50.28
42519;BME280;28147;47.520;18.920;2023-06-26T04:23:50;98374.03;;;24.12;50.18
42519;BME280;28147;47.520;18.920;2023-06-26T04:26:16;98355.09;;;24.33;49.98
42519;BME280;28147;47.520;18.920;2023-06-26T04:28:42;98373.22;;;24.76;49.52
42519;BME280;28147;47.520;18.920;2023-06-26T04:31:07;98375.00;;;25.02;49.46
42519;BME280;28147;47.520;18.920;2023-06-26T04:33:34;98365.03;;;25.14;49.42
42519;BME280;28147;47.520;18.920;2023-06-26T04:36:02;98368.06;;;25.42;49.02
42519;BME280;28147;47.520;18.920;2023-06-26T04:38:29;98371.44;;;25.60;47.35
42519;BME280;28147;47.520;18.920;2023-06-26T04:40:55;98379.00;;;25.96;47.18
42519;BME280;28147;47.520;18.920;2023-06-26T04:43:20;98376.00;;;26.10;47.70
42519;BME280;28147;47.520;18.920;2023-06-26T04:45:46;98371.38;;;26.35;47.47
42519;BME280;28147;47.520;18.920;2023-06-26T04:48:11;98378.03;;;26.59;46.82
42519;BME280;28147;47.520;18.920;2023-06-26T04:50:36;98373.53;;;26.75;46.69
42519;BME280;28147;47.520;18.920;2023-06-26T04:53:02;98371.78;;;27.07;46.81
42519;BME280;28147;47.520;18.920;2023-06-26T04:55:27;98377.16;;;27.16;46.37
42519;BME280;28147;47.520;18.920;2023-06-26T04:57:53;98374.75;;;27.39;45.93
42519;BME280;28147;47.520;18.920;2023-06-26T05:00:18;98371.94;;;27.11;47.58
42519;BME280;28147;47.520;18.920;2023-06-26T05:02:44;98381.56;;;26.59;47.01
42519;BME280;28147;47.520;18.920;2023-06-26T05:05:10;98372.81;;;27.27;46.05
42519;BME280;28147;47.520;18.920;2023-06-26T05:07:36;98368.94;;;27.04;45.08
42519;BME280;28147;47.520;18.920;2023-06-26T05:10:01;98373.03;;;27.34;44.38
42519;BME280;28147;47.520;18.920;2023-06-26T05:12:27;98380.53;;;27.50;41.27
42519;BME280;28147;47.520;18.920;2023-06-26T05:14:52;98383.34;;;27.65;39.98
42519;BME280;28147;47.520;18.920;2023-06-26T05:17:18;98376.94;;;27.21;39.57
42519;BME280;28147;47.520;18.920;2023-06-26T05:19:43;98382.88;;;27.76;39.42
42519;BME280;28147;47.520;18.920;2023-06-26T05:22:09;98375.25;;;27.57;41.12
42519;BME280;28147;47.520;18.920;2023-06-26T05:24:38;98379.50;;;27.54;40.62
42519;BME280;28147;47.520;18.920;2023-06-26T05:27:04;98372.25;;;28.30;39.91
42519;BME280;28147;47.520;18.920;2023-06-26T05:29:31;98385.88;;;27.58;42.13
42519;BME280;28147;47.520;18.920;2023-06-26T05:31:57;98382.69;;;27.56;41.66
42519;BME280;28147;47.520;18.920;2023-06-26T05:34:23;98381.84;;;27.28;39.65
42519;BME280;28147;47.520;18.920;2023-06-26T05:36:58;98381.47;;;26.68;41.47
42519;BME280;28147;47.520;18.920;2023-06-26T05:39:24;98378.91;;;26.38;41.31
42519;BME280;28147;47.520;18.920;2023-06-26T05:41:50;98382.94;;;26.53;40.74
42519;BME280;28147;47.520;18.920;2023-06-26T05:44:16;98379.97;;;27.44;39.78
42519;BME280;28147;47.520;18.920;2023-06-26T05:46:42;98382.41;;;27.09;42.41
42519;BME280;28147;47.520;18.920;2023-06-26T05:49:07;98381.03;;;26.90;40.89
42519;BME280;28147;47.520;18.920;2023-06-26T05:51:33;98380.00;;;26.95;40.01
42519;BME280;28147;47.520;18.920;2023-06-26T05:53:58;98382.28;;;27.30;40.20
42519;BME280;28147;47.520;18.920;2023-06-26T05:56:24;98379.22;;;27.19;38.35
42519;BME280;28147;47.520;18.920;2023-06-26T05:58:50;98388.03;;;28.21;38.69
42519;BME280;28147;47.520;18.920;2023-06-26T06:01:16;98381.66;;;28.45;37.90
42519;BME280;28147;47.520;18.920;2023-06-26T06:03:41;98381.03;;;27.27;39.10
42519;BME280;28147;47.520;18.920;2023-06-26T06:06:07;98386.59;;;28.40;40.24
42519;BME280;28147;47.520;18.920;2023-06-26T06:08:32;98388.31;;;27.35;39.50
42519;BME280;28147;47.520;18.920;2023-06-26T06:10:59;98379.09;;;28.68;37.71
42519;BME280;28147;47.520;18.920;2023-06-26T06:13:25;98387.63;;;28.07;40.10
42519;BME280;28147;47.520;18.920;2023-06-26T06:15:50;98388.53;;;27.83;39.14
42519;BME280;28147;47.520;18.920;2023-06-26T06:18:15;98385.28;;;27.77;39.04
42519;BME280;28147;47.520;18.920;2023-06-26T06:20:41;98390.47;;;28.10;37.43
42519;BME280;28147;47.520;18.920;2023-06-26T06:23:06;98387.66;;;28.67;38.28
42519;BME280;28147;47.520;18.920;2023-06-26T06:25:32;98386.97;;;28.54;39.53
42519;BME280;28147;47.520;18.920;2023-06-26T06:27:57;98385.41;;;29.20;39.50
42519;BME280;28147;47.520;18.920;2023-06-26T06:30:23;98393.25;;;29.02;39.68
42519;BME280;28147;47.520;18.920;2023-06-26T06:32:48;98388.44;;;29.15;38.66
42519;BME280;28147;47.520;18.920;2023-06-26T06:35:19;98395.84;;;29.30;37.87
42519;BME280;28147;47.520;18.920;2023-06-26T06:37:45;98388.44;;;29.50;37.09
42519;BME280;28147;47.520;18.920;2023-06-26T06:40:11;98394.97;;;29.61;37.27
42519;BME280;28147;47.520;18.920;2023-06-26T06:42:36;98389.63;;;30.26;37.20
42519;BME280;28147;47.520;18.920;2023-06-26T06:45:03;98388.03;;;30.25;37.27
42519;BME280;28147;47.520;18.920;2023-06-26T06:47:29;98394.44;;;28.41;38.29
42519;BME280;28147;47.520;18.920;2023-06-26T06:49:54;98396.50;;;28.76;38.26
42519;BME280;28147;47.520;18.920;2023-06-26T06:52:20;98392.22;;;29.26;38.33
42519;BME280;28147;47.520;18.920;2023-06-26T06:54:57;98392.09;;;30.32;37.75
42519;BME280;28147;47.520;18.920;2023-06-26T06:57:24;98391.06;;;29.62;37.80
42519;BME280;28147;47.520;18.920;2023-06-26T06:59:50;98391.16;;;29.85;37.44
42519;BME280;28147;47.520;18.920;2023-06-26T07:02:19;98386.53;;;29.70;38.64
42519;BME280;28147;47.520;18.920;2023-06-26T07:04:45;98383.22;;;29.61;38.13
42519;BME280;28147;47.520;18.920;2023-06-26T07:07:10;98389.13;;;29.27;36.60
42519;BME280;28147;47.520;18.920;2023-06-26T07:09:36;98394.19;;;28.94;36.52
42519;BME280;28147;47.520;18.920;2023-06-26T07:12:01;98391.91;;;28.20;36.78
42519;BME280;28147;47.520;18.920;2023-06-26T07:14:28;98388.69;;;29.25;35.77
42519;BME280;28147;47.520;18.920;2023-06-26T07:16:53;98394.69;;;28.36;38.55
42519;BME280;28147;47.520;18.920;2023-06-26T07:19:18;98387.09;;;29.24;36.39
42519;BME280;28147;47.520;18.920;2023-06-26T07:21:44;98393.25;;;28.26;37.64
42519;BME280;28147;47.520;18.920;2023-06-26T07:24:11;98393.41;;;28.77;38.58
42519;BME280;28147;47.520;18.920;2023-06-26T07:26:37;98397.56;;;28.11;37.99
42519;BME280;28147;47.520;18.920;2023-06-26T07:29:02;98389.69;;;28.85;37.34
42519;BME280;28147;47.520;18.920;2023-06-26T07:31:28;98387.91;;;29.25;35.85
42519;BME280;28147;47.520;18.920;2023-06-26T07:33:53;98393.22;;;28.70;36.20
42519;BME280;28147;47.520;18.920;2023-06-26T07:36:18;98385.81;;;29.73;35.03
42519;BME280;28147;47.520;18.920;2023-06-26T07:38:44;98399.63;;;29.06;35.69
42519;BME280;28147;47.520;18.920;2023-06-26T07:41:09;98392.97;;;29.07;37.45
42519;BME280;28147;47.520;18.920;2023-06-26T07:43:35;98392.44;;;28.70;38.52
42519;BME280;28147;47.520;18.920;2023-06-26T07:46:00;98390.66;;;29.79;35.31
42519;BME280;28147;47.520;18.920;2023-06-26T07:48:25;98390.88;;;30.52;34.47
42519;BME280;28147;47.520;18.920;2023-06-26T07:50:51;98386.66;;;31.31;34.22
42519;BME280;28147;47.520;18.920;2023-06-26T07:53:16;98394.81;;;30.74;34.83
42519;BME280;28147;47.520;18.920;2023-06-26T07:55:42;98388.31;;;31.65;34.79
42519;BME280;28147;47.520;18.920;2023-06-26T07:58:08;98393.47;;;31.40;33.68
42519;BME280;28147;47.520;18.920;2023-06-26T08:00:33;98390.66;;;32.34;34.75
42519;BME280;28147;47.520;18.920;2023-06-26T08:02:59;98396.56;;;31.95;34.02
42519;BME280;28147;47.520;18.920;2023-06-26T08:05:24;98392.84;;;31.84;32.92
42519;BME280;28147;47.520;18.920;2023-06-26T08:07:50;98398.59;;;31.15;32.24
42519;BME280;28147;47.520;18.920;2023-06-26T08:10:15;98397.25;;;31.06;31.87
42519;BME280;28147;47.520;18.920;2023-06-26T08:12:41;98393.94;;;31.76;31.80
42519;BME280;28147;47.520;18.920;2023-06-26T08:15:10;98391.84;;;31.36;32.42
42519;BME280;28147;47.520;18.920;2023-06-26T08:17:35;98396.88;;;32.24;32.39
42519;BME280;28147;47.520;18.920;2023-06-26T08:20:02;98396.13;;;32.68;31.97
42519;BME280;28147;47.520;18.920;2023-06-26T08:22:27;98404.00;;;33.14;31.47
42519;BME280;28147;47.520;18.920;2023-06-26T08:24:53;98404.03;;;32.69;31.27
42519;BME280;28147;47.520;18.920;2023-06-26T08:27:18;98402.91;;;32.37;31.96
42519;BME280;28147;47.520;18.920;2023-06-26T08:29:43;98406.53;;;31.20;33.75
42519;BME280;28147;47.520;18.920;2023-06-26T08:32:09;98403.44;;;31.48;34.02
42519;BME280;28147;47.520;18.920;2023-06-26T08:34:34;98400.97;;;31.43;34.06
42519;BME280;28147;47.520;18.920;2023-06-26T08:36:59;98405.91;;;30.58;34.30
42519;BME280;28147;47.520;18.920;2023-06-26T08:39:25;98402.31;;;30.15;34.36
42519;BME280;28147;47.520;18.920;2023-06-26T08:41:50;98398.25;;;31.20;33.50
42519;BME280;28147;47.520;18.920;2023-06-26T08:44:16;98402.91;;;32.78;34.00
42519;BME280;28147;47.520;18.920;2023-06-26T08:46:42;98396.94;;;32.31;33.70
42519;BME280;28147;47.520;18.920;2023-06-26T08:52:59;98398.91;;;32.72;34.00
42519;BME280;28147;47.520;18.920;2023-06-26T08:55:27;98397.56;;;32.51;33.63
42519;BME280;28147;47.520;18.920;2023-06-26T08:57:54;98406.84;;;33.28;33.69
42519;BME280;28147;47.520;18.920;2023-06-26T09:00:20;98402.34;;;33.02;31.33
42519;BME280;28147;47.520;18.920;2023-06-26T09:02:46;98402.56;;;31.74;33.57
42519;BME280;28147;47.520;18.920;2023-06-26T09:05:11;98397.06;;;31.74;34.16
42519;BME280;28147;47.520;18.920;2023-06-26T09:07:37;98401.72;;;32.38;33.79
42519;BME280;28147;47.520;18.920;2023-06-26T09:10:02;98397.78;;;31.98;32.53
42519;BME280;28147;47.520;18.920;2023-06-26T09:12:28;98396.69;;;32.06;32.23
42519;BME280;28147;47.520;18.920;2023-06-26T09:14:55;98396.09;;;31.60;32.17
42519;BME280;28147;47.520;18.920;2023-06-26T09:17:25;98393.38;;;32.31;32.29
42519;BME280;28147;47.520;18.920;2023-06-26T09:19:51;98392.28;;;32.80;32.86
42519;BME280;28147;47.520;18.920;2023-06-26T09:22:17;98394.66;;;31.16;35.12
42519;BME280;28147;47.520;18.920;2023-06-26T09:24:43;98396.19;;;31.37;36.17
42519;BME280;28147;47.520;18.920;2023-06-26T09:27:09;98397.59;;;32.17;35.24
42519;BME280;28147;47.520;18.920;2023-06-26T09:29:36;98393.88;;;31.16;36.47
42519;BME280;28147;47.520;18.920;2023-06-26T09:32:01;98402.28;;;31.00;36.86
42519;BME280;28147;47.520;18.920;2023-06-26T09:34:31;98400.75;;;30.57;38.01
42519;BME280;28147;47.520;18.920;2023-06-26T09:36:57;98404.41;;;30.41;38.05
42519;BME280;28147;47.520;18.920;2023-06-26T09:39:23;98397.59;;;30.54;37.48
42519;BME280;28147;47.520;18.920;2023-06-26T09:41:49;98395.50;;;30.25;37.36
42519;BME280;28147;47.520;18.920;2023-06-26T09:44:15;98400.47;;;30.39;38.22
42519;BME280;28147;47.520;18.920;2023-06-26T09:46:40;98390.78;;;30.06;39.33
42519;BME280;28147;47.520;18.920;2023-06-26T09:49:07;98396.72;;;30.08;35.60
42519;BME280;28147;47.520;18.920;2023-06-26T09:51:34;98396.88;;;29.41;36.05
42519;BME280;28147;47.520;18.920;2023-06-26T09:54:01;98386.25;;;29.75;36.88
42519;BME280;28147;47.520;18.920;2023-06-26T09:56:27;98390.53;;;30.34;37.25
42519;BME280;28147;47.520;18.920;2023-06-26T09:58:55;98390.34;;;30.04;37.20
42519;BME280;28147;47.520;18.920;2023-06-26T10:01:22;98382.16;;;30.08;36.56
42519;BME280;28147;47.520;18.920;2023-06-26T10:03:48;98390.91;;;30.33;35.44
42519;BME280;28147;47.520;18.920;2023-06-26T10:06:14;98391.06;;;30.40;35.35
42519;BME280;28147;47.520;18.920;2023-06-26T10:08:41;98380.19;;;31.46;34.58
42519;BME280;28147;47.520;18.920;2023-06-26T10:11:12;98378.78;;;31.06;36.31
42519;BME280;28147;47.520;18.920;2023-06-26T10:13:42;98383.41;;;30.98;34.82
42519;BME280;28147;47.520;18.920;2023-06-26T10:16:08;98373.00;;;31.98;35.41
42519;BME280;28147;47.520;18.920;2023-06-26T10:18:38;98374.41;;;32.22;33.27
42519;BME280;28147;47.520;18.920;2023-06-26T10:21:05;98372.53;;;33.26;32.73
42519;BME280;28147;47.520;18.920;2023-06-26T10:23:32;98371.69;;;33.18;33.25
42519;BME280;28147;47.520;18.920;2023-06-26T10:26:00;98375.41;;;33.43;31.10
42519;BME280;28147;47.520;18.920;2023-06-26T10:28:29;98368.78;;;33.55;30.05
42519;BME280;28147;47.520;18.920;2023-06-26T10:30:58;98360.78;;;33.39;31.07
42519;BME280;28147;47.520;18.920;2023-06-26T10:33:26;98363.97;;;33.45;31.24
42519;BME280;28147;47.520;18.920;2023-06-26T10:35:51;98373.28;;;32.67;32.37
42519;BME280;28147;47.520;18.920;2023-06-26T10:38:17;98372.00;;;33.02;33.42
42519;BME280;28147;47.520;18.920;2023-06-26T10:40:48;98369.81;;;31.96;33.91
42519;BME280;28147;47.520;18.920;2023-06-26T10:43:14;98373.06;;;31.71;34.63
42519;BME280;28147;47.520;18.920;2023-06-26T10:45:45;98375.81;;;31.41;35.37
42519;BME280;28147;47.520;18.920;2023-06-26T10:48:14;98371.50;;;31.44;34.92
42519;BME280;28147;47.520;18.920;2023-06-26T10:50:40;98370.47;;;31.29;35.88
42519;BME280;28147;47.520;18.920;2023-06-26T10:55:58;98368.00;;;31.47;36.02
42519;BME280;28147;47.520;18.920;2023-06-26T11:01:28;98367.28;;;31.23;35.33
42519;BME280;28147;47.520;18.920;2023-06-26T11:04:07;98376.09;;;32.75;33.77
42519;BME280;28147;47.520;18.920;2023-06-26T11:06:34;98366.16;;;31.28;32.41
42519;BME280;28147;47.520;18.920;2023-06-26T11:09:07;98360.59;;;31.51;32.90
42519;BME280;28147;47.520;18.920;2023-06-26T11:14:21;98365.94;;;30.87;35.42
42519;BME280;28147;47.520;18.920;2023-06-26T11:16:48;98360.72;;;31.05;36.24
42519;BME280;28147;47.520;18.920;2023-06-26T11:19:16;98366.06;;;32.52;33.12
42519;BME280;28147;47.520;18.920;2023-06-26T11:21:41;98358.97;;;32.99;31.63
42519;BME280;28147;47.520;18.920;2023-06-26T11:24:07;98359.28;;;32.42;30.80
42519;BME280;28147;47.520;18.920;2023-06-26T11:26:39;98350.81;;;32.62;31.67
42519;BME280;28147;47.520;18.920;2023-06-26T11:29:05;98351.13;;;33.01;32.70
42519;BME280;28147;47.520;18.920;2023-06-26T11:31:32;98354.19;;;32.44;32.51
42519;BME280;28147;47.520;18.920;2023-06-26T11:34:24;98350.44;;;31.89;31.89
42519;BME280;28147;47.520;18.920;2023-06-26T11:36:50;98352.50;;;33.39;31.71
42519;BME280;28147;47.520;18.920;2023-06-26T11:39:16;98355.66;;;33.38;32.13
42519;BME280;28147;47.520;18.920;2023-06-26T11:41:41;98349.78;;;32.88;32.63
42519;BME280;28147;47.520;18.920;2023-06-26T11:44:09;98354.44;;;32.32;32.30
42519;BME280;28147;47.520;18.920;2023-06-26T11:46:35;98351.63;;;32.25;31.75
42519;BME280;28147;47.520;18.920;2023-06-26T11:49:07;98352.69;;;33.02;31.34
42519;BME280;28147;47.520;18.920;2023-06-26T11:51:34;98352.44;;;32.70;33.15
42519;BME280;28147;47.520;18.920;2023-06-26T11:54:02;98343.41;;;32.29;33.12
42519;BME280;28147;47.520;18.920;2023-06-26T11:56:28;98350.69;;;32.48;32.45
42519;BME280;28147;47.520;18.920;2023-06-26T11:59:01;98339.94;;;32.87;31.48
42519;BME280;28147;47.520;18.920;2023-06-26T12:01:34;98340.59;;;33.21;31.45
42519;BME280;28147;47.520;18.920;2023-06-26T12:04:02;98341.19;;;32.45;32.63
42519;BME280;28147;47.520;18.920;2023-06-26T12:06:34;98335.97;;;33.43;31.60
42519;BME280;28147;47.520;18.920;2023-06-26T12:09:05;98340.53;;;33.10;31.60
42519;BME280;28147;47.520;18.920;2023-06-26T12:11:32;98339.06;;;33.27;31.73
42519;BME280;28147;47.520;18.920;2023-06-26T12:13:59;98339.66;;;33.69;33.40
42519;BME280;28147;47.520;18.920;2023-06-26T12:16:27;98344.75;;;33.59;32.20
42519;BME280;28147;47.520;18.920;2023-06-26T12:19:01;98347.75;;;33.33;31.49
42519;BME280;28147;47.520;18.920;2023-06-26T12:24:01;98339.81;;;33.24;29.48
42519;BME280;28147;47.520;18.920;2023-06-26T12:26:28;98337.38;;;33.12;31.16
42519;BME280;28147;47.520;18.920;2023-06-26T12:29:03;98331.81;;;33.05;30.39
42519;BME280;28147;47.520;18.920;2023-06-26T12:31:30;98328.91;;;32.39;31.85
42519;BME280;28147;47.520;18.920;2023-06-26T12:33:56;98330.31;;;32.18;32.26
42519;BME280;28147;47.520;18.920;2023-06-26T12:36:21;98326.81;;;31.54;34.01
42519;BME280;28147;47.520;18.920;2023-06-26T12:38:48;98334.47;;;32.02;34.01
42519;BME280;28147;47.520;18.920;2023-06-26T12:41:14;98335.34;;;32.09;34.58
42519;BME280;28147;47.520;18.920;2023-06-26T12:43:40;98335.22;;;31.98;34.59
42519;BME280;28147;47.520;18.920;2023-06-26T12:46:06;98331.59;;;31.91;33.79
42519;BME280;28147;47.520;18.920;2023-06-26T12:48:42;98335.78;;;32.56;31.90
42519;BME280;28147;47.520;18.920;2023-06-26T12:51:17;98336.50;;;32.49;31.83
42519;BME280;28147;47.520;18.920;2023-06-26T12:53:43;98332.53;;;32.46;31.07
42519;BME280;28147;47.520;18.920;2023-06-26T12:56:09;98327.94;;;33.13;30.69
42519;BME280;28147;47.520;18.920;2023-06-26T12:58:36;98332.63;;;33.09;32.36
42519;BME280;28147;47.520;18.920;2023-06-26T13:01:04;98330.66;;;33.06;30.55
42519;BME280;28147;47.520;18.920;2023-06-26T13:03:29;98328.50;;;32.81;31.25
42519;BME280;28147;47.520;18.920;2023-06-26T13:05:54;98324.72;;;32.52;30.84